sensor_id;sensor_type;location;lat;lon;timestamp;temperature;humidity
3194;DHT22;1608;50.860;13.466;2023-02-11T00:02:01;2.10;99.90
3194;DHT22;1608;50.860;13.466;2023-02-11T00:04:31;2.00;99.90
3194;DHT22;1608;50.860;13.466;2023-02-11T00:06:58;2.00;99.90
3194;DHT22;1608;50.860;13.466;2023-02-11T00:09:24;2.00;99.90
3194;DHT22;1608;50.860;13.466;2023-02-11T00:11:51;2.00;99.90
3194;DHT22;1608;50.860;13.466;2023-02-11T00:14:18;2.00;99.90
3194;DHT22;1608;50.860;13.466;2023-02-11T00:16:45;2.10;99.90
3194;DHT22;1608;50.860;13.466;2023-02-11T00:19:12;2.10;99.90
3194;DHT22;1608;50.860;13.466;2023-02-11T00:21:40;2.20;99.90
3194;DHT22;1608;50.860;13.466;2023-02-11T00:24:06;2.20;99.90
3194;DHT22;1608;50.860;13.466;2023-02-11T00:26:34;2.30;99.90
3194;DHT22;1608;50.860;13.466;2023-02-11T00:29:02;2.30;99.90
3194;DHT22;1608;50.860;13.466;2023-02-11T00:31:29;2.30;99.90
3194;DHT22;1608;50.860;13.466;2023-02-11T00:33:56;2.30;99.90
3194;DHT22;1608;50.860;13.466;2023-02-11T00:36:25;2.30;99.90
3194;DHT22;1608;50.860;13.466;2023-02-11T00:38:54;2.40;99.90
3194;DHT22;1608;50.860;13.466;2023-02-11T00:41:21;2.40;99.90
3194;DHT22;1608;50.860;13.466;2023-02-11T00:43:48;2.40;99.90
3194;DHT22;1608;50.860;13.466;2023-02-11T00:46:15;2.40;99.90
3194;DHT22;1608;50.860;13.466;2023-02-11T00:48:43;2.30;99.90
3194;DHT22;1608;50.860;13.466;2023-02-11T00:51:10;2.40;99.90
3194;DHT22;1608;50.860;13.466;2023-02-11T00:53:37;2.40;99.90
3194;DHT22;1608;50.860;13.466;2023-02-11T00:56:06;2.40;99.90
3194;DHT22;1608;50.860;13.466;2023-02-11T00:58:33;2.40;99.90
3194;DHT22;1608;50.860;13.466;2023-02-11T01:01:00;2.60;99.90
3194;DHT22;1608;50.860;13.466;2023-02-11T01:03:27;2.50;99.90
3194;DHT22;1608;50.860;13.466;2023-02-11T01:05:54;2.50;99.90
3194;DHT22;1608;50.860;13.466;2023-02-11T01:08:21;2.50;99.90
3194;DHT22;1608;50.860;13.466;2023-02-11T01:10:54;2.40;99.90
3194;DHT22;1608;50.860;13.466;2023-02-11T01:13:22;2.50;99.90
3194;DHT22;1608;50.860;13.466;2023-02-11T01:15:49;2.50;99.90
3194;DHT22;1608;50.860;13.466;2023-02-11T01:18:16;2.50;99.90
3194;DHT22;1608;50.860;13.466;2023-02-11T01:20:43;2.60;99.90
3194;DHT22;1608;50.860;13.466;2023-02-11T01:23:10;2.60;99.90
3194;DHT22;1608;50.860;13.466;2023-02-11T01:25:37;2.70;99.90
3194;DHT22;1608;50.860;13.466;2023-02-11T01:28:04;2.70;99.90
3194;DHT22;1608;50.860;13.466;2023-02-11T01:30:32;2.80;99.90
3194;DHT22;1608;50.860;13.466;2023-02-11T01:32:59;2.80;99.90
3194;DHT22;1608;50.860;13.466;2023-02-11T01:35:25;2.70;99.90
3194;DHT22;1608;50.860;13.466;2023-02-11T01:37:52;2.70;99.90
3194;DHT22;1608;50.860;13.466;2023-02-11T01:40:19;2.70;99.90
3194;DHT22;1608;50.860;13.466;2023-02-11T01:42:46;2.80;99.90
3194;DHT22;1608;50.860;13.466;2023-02-11T01:45:54;2.80;99.90
3194;DHT22;1608;50.860;13.466;2023-02-11T01:48:27;2.90;99.90
3194;DHT22;1608;50.860;13.466;2023-02-11T01:51:00;3.00;99.90
3194;DHT22;1608;50.860;13.466;2023-02-11T01:53:29;3.10;99.90
3194;DHT22;1608;50.860;13.466;2023-02-11T01:56:15;3.30;99.90
3194;DHT22;1608;50.860;13.466;2023-02-11T01:59:04;3.30;99.90
3194;DHT22;1608;50.860;13.466;2023-02-11T02:01:34;3.40;99.90
3194;DHT22;1608;50.860;13.466;2023-02-11T02:04:04;3.40;99.90
3194;DHT22;1608;50.860;13.466;2023-02-11T02:06:34;3.50;99.90
3194;DHT22;1608;50.860;13.466;2023-02-11T02:09:05;3.60;99.90
3194;DHT22;1608;50.860;13.466;2023-02-11T02:11:33;3.50;99.90
3194;DHT22;1608;50.860;13.466;2023-02-11T02:14:00;3.50;99.90
3194;DHT22;1608;50.860;13.466;2023-02-11T02:16:30;3.50;99.90
3194;DHT22;1608;50.860;13.466;2023-02-11T02:28:21;3.60;99.90
3194;DHT22;1608;50.860;13.466;2023-02-11T02:31:18;3.60;99.90
3194;DHT22;1608;50.860;13.466;2023-02-11T02:33:53;3.70;99.90
3194;DHT22;1608;50.860;13.466;2023-02-11T02:36:23;3.70;99.90
3194;DHT22;1608;50.860;13.466;2023-02-11T02:38:56;3.80;99.90
3194;DHT22;1608;50.860;13.466;2023-02-11T02:41:27;3.90;99.90
3194;DHT22;1608;50.860;13.466;2023-02-11T02:43:54;3.90;99.90
3194;DHT22;1608;50.860;13.466;2023-02-11T02:46:24;4.00;99.90
3194;DHT22;1608;50.860;13.466;2023-02-11T02:48:54;4.00;99.90
3194;DHT22;1608;50.860;13.466;2023-02-11T02:54:44;4.10;99.90
3194;DHT22;1608;50.860;13.466;2023-02-11T02:57:23;4.20;99.90
3194;DHT22;1608;50.860;13.466;2023-02-11T03:00:04;4.20;99.90
3194;DHT22;1608;50.860;13.466;2023-02-11T03:02:35;4.30;99.90
3194;DHT22;1608;50.860;13.466;2023-02-11T03:05:12;4.30;99.90
3194;DHT22;1608;50.860;13.466;2023-02-11T03:07:46;4.20;99.90
3194;DHT22;1608;50.860;13.466;2023-02-11T03:10:18;4.20;99.90
3194;DHT22;1608;50.860;13.466;2023-02-11T03:12:46;4.20;99.90
3194;DHT22;1608;50.860;13.466;2023-02-11T03:15:15;4.20;99.90
3194;DHT22;1608;50.860;13.466;2023-02-11T03:17:46;4.20;99.90
3194;DHT22;1608;50.860;13.466;2023-02-11T03:20:17;4.30;99.90
3194;DHT22;1608;50.860;13.466;2023-02-11T03:22:49;4.30;99.90
3194;DHT22;1608;50.860;13.466;2023-02-11T03:25:20;4.40;99.90
3194;DHT22;1608;50.860;13.466;2023-02-11T03:27:57;4.40;99.90
3194;DHT22;1608;50.860;13.466;2023-02-11T03:30:29;4.40;99.90
3194;DHT22;1608;50.860;13.466;2023-02-11T03:33:04;4.40;99.90
3194;DHT22;1608;50.860;13.466;2023-02-11T03:35:37;4.40;99.90
3194;DHT22;1608;50.860;13.466;2023-02-11T03:38:06;4.50;99.90
3194;DHT22;1608;50.860;13.466;2023-02-11T03:40:37;4.50;99.90
3194;DHT22;1608;50.860;13.466;2023-02-11T03:43:07;4.50;99.90
3194;DHT22;1608;50.860;13.466;2023-02-11T03:45:36;4.50;99.90
3194;DHT22;1608;50.860;13.466;2023-02-11T03:48:07;4.60;99.90
3194;DHT22;1608;50.860;13.466;2023-02-11T03:50:38;4.60;99.90
3194;DHT22;1608;50.860;13.466;2023-02-11T03:53:07;4.60;99.90
3194;DHT22;1608;50.860;13.466;2023-02-11T03:55:37;4.70;99.90
3194;DHT22;1608;50.860;13.466;2023-02-11T03:58:04;4.70;99.90
3194;DHT22;1608;50.860;13.466;2023-02-11T04:00:32;4.70;99.90
3194;DHT22;1608;50.860;13.466;2023-02-11T04:02:59;4.80;99.90
3194;DHT22;1608;50.860;13.466;2023-02-11T04:05:26;4.80;99.90
3194;DHT22;1608;50.860;13.466;2023-02-11T04:07:54;4.80;99.90
3194;DHT22;1608;50.860;13.466;2023-02-11T04:10:21;4.90;99.90
3194;DHT22;1608;50.860;13.466;2023-02-11T04:12:48;4.90;99.90
3194;DHT22;1608;50.860;13.466;2023-02-11T04:15:15;4.90;99.90
3194;DHT22;1608;50.860;13.466;2023-02-11T04:17:42;5.00;99.90
3194;DHT22;1608;50.860;13.466;2023-02-11T04:20:10;4.90;99.90
3194;DHT22;1608;50.860;13.466;2023-02-11T04:22:37;4.90;99.90
3194;DHT22;1608;50.860;13.466;2023-02-11T04:25:06;5.00;99.90
3194;DHT22;1608;50.860;13.466;2023-02-11T04:27:34;5.00;99.90
3194;DHT22;1608;50.860;13.466;2023-02-11T04:30:00;5.00;99.90
3194;DHT22;1608;50.860;13.466;2023-02-11T04:32:27;5.00;99.90
3194;DHT22;1608;50.860;13.466;2023-02-11T04:34:54;5.20;99.90
3194;DHT22;1608;50.860;13.466;2023-02-11T04:37:21;5.00;99.90
3194;DHT22;1608;50.860;13.466;2023-02-11T04:39:48;5.00;99.90
3194;DHT22;1608;50.860;13.466;2023-02-11T04:42:16;5.10;99.90
3194;DHT22;1608;50.860;13.466;2023-02-11T04:44:43;5.10;99.90
3194;DHT22;1608;50.860;13.466;2023-02-11T04:47:10;5.00;99.90
3194;DHT22;1608;50.860;13.466;2023-02-11T04:49:38;5.10;99.90
3194;DHT22;1608;50.860;13.466;2023-02-11T04:52:05;5.00;99.90
3194;DHT22;1608;50.860;13.466;2023-02-11T04:54:31;5.00;99.90
3194;DHT22;1608;50.860;13.466;2023-02-11T04:56:58;5.10;99.90
3194;DHT22;1608;50.860;13.466;2023-02-11T04:59:26;5.10;99.90
3194;DHT22;1608;50.860;13.466;2023-02-11T05:01:53;5.10;99.90
3194;DHT22;1608;50.860;13.466;2023-02-11T05:04:20;5.10;99.90
3194;DHT22;1608;50.860;13.466;2023-02-11T05:06:47;5.00;99.90
3194;DHT22;1608;50.860;13.466;2023-02-11T05:09:14;5.00;99.90
3194;DHT22;1608;50.860;13.466;2023-02-11T05:11:41;5.00;99.90
3194;DHT22;1608;50.860;13.466;2023-02-11T05:14:08;5.00;99.90
3194;DHT22;1608;50.860;13.466;2023-02-11T05:16:36;5.00;99.90
3194;DHT22;1608;50.860;13.466;2023-02-11T05:19:03;5.00;99.90
3194;DHT22;1608;50.860;13.466;2023-02-11T05:21:29;4.90;99.90
3194;DHT22;1608;50.860;13.466;2023-02-11T05:23:56;4.90;99.90
3194;DHT22;1608;50.860;13.466;2023-02-11T05:26:23;4.90;99.90
3194;DHT22;1608;50.860;13.466;2023-02-11T05:28:50;4.90;99.90
3194;DHT22;1608;50.860;13.466;2023-02-11T05:31:17;4.70;99.90
3194;DHT22;1608;50.860;13.466;2023-02-11T05:33:45;4.80;99.90
3194;DHT22;1608;50.860;13.466;2023-02-11T05:36:12;4.70;99.90
3194;DHT22;1608;50.860;13.466;2023-02-11T05:38:40;4.70;99.90
3194;DHT22;1608;50.860;13.466;2023-02-11T05:41:08;4.70;99.90
3194;DHT22;1608;50.860;13.466;2023-02-11T05:43:35;4.70;99.90
3194;DHT22;1608;50.860;13.466;2023-02-11T05:46:02;4.70;99.90
3194;DHT22;1608;50.860;13.466;2023-02-11T05:48:29;4.70;99.90
3194;DHT22;1608;50.860;13.466;2023-02-11T05:50:58;4.60;99.90
3194;DHT22;1608;50.860;13.466;2023-02-11T05:53:24;4.60;99.90
3194;DHT22;1608;50.860;13.466;2023-02-11T05:55:51;4.60;99.90
3194;DHT22;1608;50.860;13.466;2023-02-11T05:58:18;4.60;99.90
3194;DHT22;1608;50.860;13.466;2023-02-11T06:00:45;4.70;99.90
3194;DHT22;1608;50.860;13.466;2023-02-11T06:03:12;4.70;99.90
3194;DHT22;1608;50.860;13.466;2023-02-11T06:05:39;4.70;99.90
3194;DHT22;1608;50.860;13.466;2023-02-11T06:08:07;4.70;99.90
3194;DHT22;1608;50.860;13.466;2023-02-11T06:10:34;4.70;99.90
3194;DHT22;1608;50.860;13.466;2023-02-11T06:13:01;4.80;99.90
3194;DHT22;1608;50.860;13.466;2023-02-11T06:15:28;4.90;99.90
3194;DHT22;1608;50.860;13.466;2023-02-11T06:17:55;4.90;99.90
3194;DHT22;1608;50.860;13.466;2023-02-11T06:20:21;4.90;99.90
3194;DHT22;1608;50.860;13.466;2023-02-11T06:22:48;4.90;99.90
3194;DHT22;1608;50.860;13.466;2023-02-11T06:25:17;4.80;99.90
3194;DHT22;1608;50.860;13.466;2023-02-11T06:27:43;4.80;99.90
3194;DHT22;1608;50.860;13.466;2023-02-11T06:30:11;4.80;99.90
3194;DHT22;1608;50.860;13.466;2023-02-11T06:32:38;4.80;99.90
3194;DHT22;1608;50.860;13.466;2023-02-11T06:35:06;4.80;99.90
3194;DHT22;1608;50.860;13.466;2023-02-11T06:37:33;4.80;99.90
3194;DHT22;1608;50.860;13.466;2023-02-11T06:40:00;4.80;99.90
3194;DHT22;1608;50.860;13.466;2023-02-11T06:42:28;4.70;99.90
3194;DHT22;1608;50.860;13.466;2023-02-11T06:44:54;4.90;99.90
3194;DHT22;1608;50.860;13.466;2023-02-11T06:47:21;4.70;99.90
3194;DHT22;1608;50.860;13.466;2023-02-11T06:49:48;3.30;99.90
3194;DHT22;1608;50.860;13.466;2023-02-11T06:52:15;4.70;99.90
3194;DHT22;1608;50.860;13.466;2023-02-11T06:54:42;4.70;99.90
3194;DHT22;1608;50.860;13.466;2023-02-11T06:57:08;5.80;99.90
3194;DHT22;1608;50.860;13.466;2023-02-11T06:59:37;4.80;99.90
3194;DHT22;1608;50.860;13.466;2023-02-11T07:02:03;4.80;99.90
3194;DHT22;1608;50.860;13.466;2023-02-11T07:04:30;4.90;99.90
3194;DHT22;1608;50.860;13.466;2023-02-11T07:06:57;4.90;99.90
3194;DHT22;1608;50.860;13.466;2023-02-11T07:09:24;4.90;99.90
3194;DHT22;1608;50.860;13.466;2023-02-11T07:11:50;4.90;99.90
3194;DHT22;1608;50.860;13.466;2023-02-11T07:14:17;4.90;99.90
3194;DHT22;1608;50.860;13.466;2023-02-11T07:16:45;4.90;99.90
3194;DHT22;1608;50.860;13.466;2023-02-11T07:19:12;4.90;99.90
3194;DHT22;1608;50.860;13.466;2023-02-11T07:21:39;4.80;99.90
3194;DHT22;1608;50.860;13.466;2023-02-11T07:24:07;4.80;99.90
3194;DHT22;1608;50.860;13.466;2023-02-11T07:26:34;4.80;99.90
3194;DHT22;1608;50.860;13.466;2023-02-11T07:29:01;4.80;99.90
3194;DHT22;1608;50.860;13.466;2023-02-11T07:31:29;4.80;99.90
3194;DHT22;1608;50.860;13.466;2023-02-11T07:33:59;4.90;99.90
3194;DHT22;1608;50.860;13.466;2023-02-11T07:36:27;4.90;99.90
3194;DHT22;1608;50.860;13.466;2023-02-11T07:38:54;4.90;99.90
3194;DHT22;1608;50.860;13.466;2023-02-11T07:41:23;4.90;99.90
3194;DHT22;1608;50.860;13.466;2023-02-11T07:43:50;4.90;99.90
3194;DHT22;1608;50.860;13.466;2023-02-11T07:46:19;5.00;99.90
3194;DHT22;1608;50.860;13.466;2023-02-11T07:48:46;5.00;99.90
3194;DHT22;1608;50.860;13.466;2023-02-11T07:51:16;5.00;99.90
3194;DHT22;1608;50.860;13.466;2023-02-11T07:53:43;5.10;99.90
3194;DHT22;1608;50.860;13.466;2023-02-11T07:56:11;5.00;99.90
3194;DHT22;1608;50.860;13.466;2023-02-11T07:58:38;5.10;99.90
3194;DHT22;1608;50.860;13.466;2023-02-11T08:01:08;5.10;99.90
3194;DHT22;1608;50.860;13.466;2023-02-11T08:03:36;5.20;99.90
3194;DHT22;1608;50.860;13.466;2023-02-11T08:06:03;5.10;99.90
3194;DHT22;1608;50.860;13.466;2023-02-11T08:08:32;5.10;99.90
3194;DHT22;1608;50.860;13.466;2023-02-11T08:11:05;5.10;99.90
3194;DHT22;1608;50.860;13.466;2023-02-11T08:13:32;5.10;99.90
3194;DHT22;1608;50.860;13.466;2023-02-11T08:15:58;5.10;99.90
3194;DHT22;1608;50.860;13.466;2023-02-11T08:18:25;5.10;99.90
3194;DHT22;1608;50.860;13.466;2023-02-11T08:20:52;5.10;99.90
3194;DHT22;1608;50.860;13.466;2023-02-11T08:23:19;5.20;99.90
3194;DHT22;1608;50.860;13.466;2023-02-11T08:25:47;5.10;99.90
3194;DHT22;1608;50.860;13.466;2023-02-11T08:28:14;5.20;99.90
3194;DHT22;1608;50.860;13.466;2023-02-11T08:30:41;5.20;99.90
3194;DHT22;1608;50.860;13.466;2023-02-11T08:33:07;5.30;99.90
3194;DHT22;1608;50.860;13.466;2023-02-11T08:35:34;5.30;99.90
3194;DHT22;1608;50.860;13.466;2023-02-11T08:38:01;5.30;99.90
3194;DHT22;1608;50.860;13.466;2023-02-11T08:40:28;5.30;99.90
3194;DHT22;1608;50.860;13.466;2023-02-11T08:42:56;5.30;99.90
3194;DHT22;1608;50.860;13.466;2023-02-11T08:45:24;5.40;99.90
3194;DHT22;1608;50.860;13.466;2023-02-11T08:47:51;5.50;99.90
3194;DHT22;1608;50.860;13.466;2023-02-11T08:50:18;5.60;99.90
3194;DHT22;1608;50.860;13.466;2023-02-11T08:52:44;5.50;99.90
3194;DHT22;1608;50.860;13.466;2023-02-11T08:55:11;5.50;99.90
3194;DHT22;1608;50.860;13.466;2023-02-11T08:57:38;5.40;99.90
3194;DHT22;1608;50.860;13.466;2023-02-11T09:00:10;5.40;99.90
3194;DHT22;1608;50.860;13.466;2023-02-11T09:02:37;5.50;99.90
3194;DHT22;1608;50.860;13.466;2023-02-11T09:05:04;5.50;99.90
3194;DHT22;1608;50.860;13.466;2023-02-11T09:07:31;5.50;99.90
3194;DHT22;1608;50.860;13.466;2023-02-11T09:09:58;5.40;99.90
3194;DHT22;1608;50.860;13.466;2023-02-11T09:12:25;6.70;99.90
3194;DHT22;1608;50.860;13.466;2023-02-11T09:14:52;5.20;99.90
3194;DHT22;1608;50.860;13.466;2023-02-11T09:17:20;5.50;99.90
3194;DHT22;1608;50.860;13.466;2023-02-11T09:19:47;5.70;99.90
3194;DHT22;1608;50.860;13.466;2023-02-11T09:22:14;5.80;99.90
3194;DHT22;1608;50.860;13.466;2023-02-11T09:24:40;6.00;99.90
3194;DHT22;1608;50.860;13.466;2023-02-11T09:27:07;6.00;99.90
3194;DHT22;1608;50.860;13.466;2023-02-11T09:29:34;6.00;99.90
3194;DHT22;1608;50.860;13.466;2023-02-11T09:32:01;6.00;99.90
3194;DHT22;1608;50.860;13.466;2023-02-11T09:34:29;6.00;99.90
3194;DHT22;1608;50.860;13.466;2023-02-11T09:36:56;6.00;99.90
3194;DHT22;1608;50.860;13.466;2023-02-11T09:39:23;5.90;99.90
3194;DHT22;1608;50.860;13.466;2023-02-11T09:42:07;5.90;99.90
3194;DHT22;1608;50.860;13.466;2023-02-11T09:44:38;6.00;99.90
3194;DHT22;1608;50.860;13.466;2023-02-11T09:47:20;6.00;99.90
3194;DHT22;1608;50.860;13.466;2023-02-11T09:49:51;6.00;99.90
3194;DHT22;1608;50.860;13.466;2023-02-11T09:52:29;6.00;99.90
3194;DHT22;1608;50.860;13.466;2023-02-11T09:54:58;5.90;99.90
3194;DHT22;1608;50.860;13.466;2023-02-11T09:57:29;6.00;99.90
3194;DHT22;1608;50.860;13.466;2023-02-11T09:59:57;5.90;99.90
3194;DHT22;1608;50.860;13.466;2023-02-11T10:02:26;5.90;99.90
3194;DHT22;1608;50.860;13.466;2023-02-11T10:05:12;6.10;99.90
3194;DHT22;1608;50.860;13.466;2023-02-11T10:07:47;6.00;99.90
3194;DHT22;1608;50.860;13.466;2023-02-11T10:10:27;6.10;99.90
3194;DHT22;1608;50.860;13.466;2023-02-11T10:13:12;6.10;99.90
3194;DHT22;1608;50.860;13.466;2023-02-11T10:15:44;6.20;99.90
3194;DHT22;1608;50.860;13.466;2023-02-11T10:18:31;6.20;99.90
3194;DHT22;1608;50.860;13.466;2023-02-11T10:21:11;6.20;99.90
3194;DHT22;1608;50.860;13.466;2023-02-11T10:23:45;6.20;99.90
3194;DHT22;1608;50.860;13.466;2023-02-11T10:26:15;6.30;99.90
3194;DHT22;1608;50.860;13.466;2023-02-11T10:28:44;6.40;99.90
3194;DHT22;1608;50.860;13.466;2023-02-11T10:31:15;6.40;99.90
3194;DHT22;1608;50.860;13.466;2023-02-11T10:33:45;6.40;99.90
3194;DHT22;1608;50.860;13.466;2023-02-11T10:36:15;6.40;99.90
3194;DHT22;1608;50.860;13.466;2023-02-11T10:38:44;6.40;99.90
3194;DHT22;1608;50.860;13.466;2023-02-11T10:43:55;6.50;99.90
3194;DHT22;1608;50.860;13.466;2023-02-11T10:46:25;6.50;99.90
3194;DHT22;1608;50.860;13.466;2023-02-11T10:48:55;6.50;99.90
3194;DHT22;1608;50.860;13.466;2023-02-11T10:51:24;6.60;99.90
3194;DHT22;1608;50.860;13.466;2023-02-11T10:54:09;6.50;99.90
3194;DHT22;1608;50.860;13.466;2023-02-11T10:56:41;6.70;99.90
3194;DHT22;1608;50.860;13.466;2023-02-11T10:59:16;6.60;99.90
3194;DHT22;1608;50.860;13.466;2023-02-11T11:01:47;6.60;99.90
3194;DHT22;1608;50.860;13.466;2023-02-11T11:04:36;6.60;99.90
3194;DHT22;1608;50.860;13.466;2023-02-11T11:07:21;6.60;99.90
3194;DHT22;1608;50.860;13.466;2023-02-11T11:09:50;6.70;99.90
3194;DHT22;1608;50.860;13.466;2023-02-11T11:12:27;6.80;99.90
3194;DHT22;1608;50.860;13.466;2023-02-11T11:14:56;6.90;99.90
3194;DHT22;1608;50.860;13.466;2023-02-11T11:17:24;7.00;99.90
3194;DHT22;1608;50.860;13.466;2023-02-11T11:19:55;7.10;99.90
3194;DHT22;1608;50.860;13.466;2023-02-11T11:22:24;7.10;99.90
3194;DHT22;1608;50.860;13.466;2023-02-11T11:24:51;7.10;99.90
3194;DHT22;1608;50.860;13.466;2023-02-11T11:27:22;7.20;99.90
3194;DHT22;1608;50.860;13.466;2023-02-11T11:29:52;7.20;99.90
3194;DHT22;1608;50.860;13.466;2023-02-11T11:32:21;7.20;99.90
3194;DHT22;1608;50.860;13.466;2023-02-11T11:34:51;7.20;99.90
3194;DHT22;1608;50.860;13.466;2023-02-11T11:37:25;7.10;99.90
3194;DHT22;1608;50.860;13.466;2023-02-11T11:39:56;7.10;99.90
3194;DHT22;1608;50.860;13.466;2023-02-11T11:42:26;7.20;99.90
3194;DHT22;1608;50.860;13.466;2023-02-11T11:44:58;7.40;99.90
3194;DHT22;1608;50.860;13.466;2023-02-11T11:47:30;7.20;99.90
3194;DHT22;1608;50.860;13.466;2023-02-11T11:50:14;7.20;99.90
3194;DHT22;1608;50.860;13.466;2023-02-11T11:52:51;7.20;99.90
3194;DHT22;1608;50.860;13.466;2023-02-11T11:55:21;7.20;99.90
3194;DHT22;1608;50.860;13.466;2023-02-11T11:57:48;7.20;99.90
3194;DHT22;1608;50.860;13.466;2023-02-11T12:00:18;7.20;99.90
3194;DHT22;1608;50.860;13.466;2023-02-11T12:03:15;7.20;99.90
3194;DHT22;1608;50.860;13.466;2023-02-11T12:05:50;7.10;99.90
3194;DHT22;1608;50.860;13.466;2023-02-11T12:08:25;7.00;99.90
3194;DHT22;1608;50.860;13.466;2023-02-11T12:11:04;6.90;99.90
3194;DHT22;1608;50.860;13.466;2023-02-11T12:13:42;7.00;99.90
3194;DHT22;1608;50.860;13.466;2023-02-11T12:16:20;7.00;99.90
3194;DHT22;1608;50.860;13.466;2023-02-11T12:19:13;7.30;99.90
3194;DHT22;1608;50.860;13.466;2023-02-11T12:21:49;7.20;99.90
3194;DHT22;1608;50.860;13.466;2023-02-11T12:24:31;7.10;99.90
3194;DHT22;1608;50.860;13.466;2023-02-11T12:27:05;7.20;99.90
3194;DHT22;1608;50.860;13.466;2023-02-11T12:29:44;7.10;99.90
3194;DHT22;1608;50.860;13.466;2023-02-11T12:32:22;7.10;99.90
3194;DHT22;1608;50.860;13.466;2023-02-11T12:35:17;6.80;99.90
3194;DHT22;1608;50.860;13.466;2023-02-11T12:38:04;7.10;99.90
3194;DHT22;1608;50.860;13.466;2023-02-11T12:40:41;7.10;99.90
3194;DHT22;1608;50.860;13.466;2023-02-11T12:43:18;7.10;99.90
3194;DHT22;1608;50.860;13.466;2023-02-11T12:46:06;7.00;99.90
3194;DHT22;1608;50.860;13.466;2023-02-11T12:48:59;7.00;99.90
3194;DHT22;1608;50.860;13.466;2023-02-11T12:51:40;7.00;99.90
3194;DHT22;1608;50.860;13.466;2023-02-11T12:54:19;7.00;99.90
3194;DHT22;1608;50.860;13.466;2023-02-11T12:56:54;7.00;99.90
3194;DHT22;1608;50.860;13.466;2023-02-11T12:59:40;7.00;99.90
3194;DHT22;1608;50.860;13.466;2023-02-11T13:02:17;7.00;99.90
3194;DHT22;1608;50.860;13.466;2023-02-11T13:04:49;7.00;99.90
3194;DHT22;1608;50.860;13.466;2023-02-11T13:07:21;7.00;99.90
3194;DHT22;1608;50.860;13.466;2023-02-11T13:09:54;7.00;99.90
3194;DHT22;1608;50.860;13.466;2023-02-11T13:12:26;7.00;99.90
3194;DHT22;1608;50.860;13.466;2023-02-11T13:15:14;7.00;99.90
3194;DHT22;1608;50.860;13.466;2023-02-11T13:17:47;7.00;99.90
3194;DHT22;1608;50.860;13.466;2023-02-11T13:20:24;7.00;99.90
3194;DHT22;1608;50.860;13.466;2023-02-11T13:22:57;7.00;99.90
3194;DHT22;1608;50.860;13.466;2023-02-11T13:25:30;6.90;99.90
3194;DHT22;1608;50.860;13.466;2023-02-11T13:28:08;6.90;99.90
3194;DHT22;1608;50.860;13.466;2023-02-11T13:30:39;6.80;99.90
3194;DHT22;1608;50.860;13.466;2023-02-11T13:33:20;6.80;99.90
3194;DHT22;1608;50.860;13.466;2023-02-11T13:36:12;6.70;99.90
3194;DHT22;1608;50.860;13.466;2023-02-11T13:38:40;6.80;99.90
3194;DHT22;1608;50.860;13.466;2023-02-11T13:41:17;6.80;99.90
3194;DHT22;1608;50.860;13.466;2023-02-11T13:43:57;6.60;99.90
3194;DHT22;1608;50.860;13.466;2023-02-11T13:46:26;6.60;99.90
3194;DHT22;1608;50.860;13.466;2023-02-11T13:48:54;6.60;99.90
3194;DHT22;1608;50.860;13.466;2023-02-11T13:51:34;6.60;99.90
3194;DHT22;1608;50.860;13.466;2023-02-11T13:54:02;6.60;99.90
3194;DHT22;1608;50.860;13.466;2023-02-11T13:56:31;6.60;99.90
3194;DHT22;1608;50.860;13.466;2023-02-11T13:59:03;6.60;99.90
3194;DHT22;1608;50.860;13.466;2023-02-11T14:01:41;6.60;99.90
3194;DHT22;1608;50.860;13.466;2023-02-11T14:05:01;6.40;99.90
3194;DHT22;1608;50.860;13.466;2023-02-11T14:08:22;6.60;99.90
3194;DHT22;1608;50.860;13.466;2023-02-11T14:14:18;6.60;99.90
3194;DHT22;1608;50.860;13.466;2023-02-11T14:19:47;6.60;99.90
3194;DHT22;1608;50.860;13.466;2023-02-11T14:22:16;6.60;99.90
3194;DHT22;1608;50.860;13.466;2023-02-11T14:24:50;6.70;99.90
3194;DHT22;1608;50.860;13.466;2023-02-11T14:27:29;6.70;99.90
3194;DHT22;1608;50.860;13.466;2023-02-11T14:30:30;6.70;99.90
3194;DHT22;1608;50.860;13.466;2023-02-11T14:33:21;6.60;99.90
3194;DHT22;1608;50.860;13.466;2023-02-11T14:35:57;6.70;99.90
3194;DHT22;1608;50.860;13.466;2023-02-11T14:38:31;6.80;99.90
3194;DHT22;1608;50.860;13.466;2023-02-11T14:41:05;6.60;99.90
3194;DHT22;1608;50.860;13.466;2023-02-11T14:43:37;6.70;99.90
3194;DHT22;1608;50.860;13.466;2023-02-11T14:46:06;6.60;99.90
3194;DHT22;1608;50.860;13.466;2023-02-11T14:48:36;6.50;99.90
3194;DHT22;1608;50.860;13.466;2023-02-11T14:51:06;6.60;99.90
3194;DHT22;1608;50.860;13.466;2023-02-11T14:53:35;6.60;99.90
3194;DHT22;1608;50.860;13.466;2023-02-11T14:56:16;6.60;99.90
3194;DHT22;1608;50.860;13.466;2023-02-11T14:58:46;6.60;99.90
3194;DHT22;1608;50.860;13.466;2023-02-11T15:01:25;6.60;99.90
3194;DHT22;1608;50.860;13.466;2023-02-11T15:03:53;6.60;99.90
3194;DHT22;1608;50.860;13.466;2023-02-11T15:06:23;6.60;99.90
3194;DHT22;1608;50.860;13.466;2023-02-11T15:08:52;6.60;99.90
3194;DHT22;1608;50.860;13.466;2023-02-11T15:11:23;6.60;99.90
3194;DHT22;1608;50.860;13.466;2023-02-11T15:13:51;6.60;99.90
3194;DHT22;1608;50.860;13.466;2023-02-11T15:16:21;6.60;99.90
3194;DHT22;1608;50.860;13.466;2023-02-11T15:18:53;6.60;99.90
3194;DHT22;1608;50.860;13.466;2023-02-11T15:21:22;6.60;99.90
3194;DHT22;1608;50.860;13.466;2023-02-11T15:23:58;6.60;99.90
3194;DHT22;1608;50.860;13.466;2023-02-11T15:26:26;6.60;99.90
3194;DHT22;1608;50.860;13.466;2023-02-11T15:28:53;6.60;99.90
3194;DHT22;1608;50.860;13.466;2023-02-11T15:31:21;6.60;99.90
3194;DHT22;1608;50.860;13.466;2023-02-11T15:33:51;6.60;99.90
3194;DHT22;1608;50.860;13.466;2023-02-11T15:36:19;6.60;99.90
3194;DHT22;1608;50.860;13.466;2023-02-11T15:39:26;6.60;99.90
3194;DHT22;1608;50.860;13.466;2023-02-11T15:41:54;6.60;99.90
3194;DHT22;1608;50.860;13.466;2023-02-11T15:44:28;6.60;99.90
3194;DHT22;1608;50.860;13.466;2023-02-11T15:46:55;6.50;99.90
3194;DHT22;1608;50.860;13.466;2023-02-11T15:49:25;6.50;99.90
3194;DHT22;1608;50.860;13.466;2023-02-11T15:51:53;6.60;99.90
3194;DHT22;1608;50.860;13.466;2023-02-11T15:54:23;6.50;99.90
3194;DHT22;1608;50.860;13.466;2023-02-11T15:56:53;6.50;99.90
3194;DHT22;1608;50.860;13.466;2023-02-11T15:59:25;6.50;99.90
3194;DHT22;1608;50.860;13.466;2023-02-11T16:01:53;6.50;99.90
3194;DHT22;1608;50.860;13.466;2023-02-11T16:04:24;6.50;99.90
3194;DHT22;1608;50.860;13.466;2023-02-11T16:06:53;6.30;99.90
3194;DHT22;1608;50.860;13.466;2023-02-11T16:09:29;6.30;99.90
3194;DHT22;1608;50.860;13.466;2023-02-11T16:11:59;6.30;99.90
3194;DHT22;1608;50.860;13.466;2023-02-11T16:14:30;6.30;99.90
3194;DHT22;1608;50.860;13.466;2023-02-11T16:17:00;6.30;99.90
3194;DHT22;1608;50.860;13.466;2023-02-11T16:19:30;6.30;99.90
3194;DHT22;1608;50.860;13.466;2023-02-11T16:22:00;6.30;99.90
3194;DHT22;1608;50.860;13.466;2023-02-11T16:24:30;6.20;99.90
3194;DHT22;1608;50.860;13.466;2023-02-11T16:26:59;6.20;99.90
3194;DHT22;1608;50.860;13.466;2023-02-11T16:29:28;6.10;99.90
3194;DHT22;1608;50.860;13.466;2023-02-11T16:32:05;6.10;99.90
3194;DHT22;1608;50.860;13.466;2023-02-11T16:34:35;6.10;99.90
3194;DHT22;1608;50.860;13.466;2023-02-11T16:37:03;6.10;99.90
3194;DHT22;1608;50.860;13.466;2023-02-11T16:39:30;6.10;99.90
3194;DHT22;1608;50.860;13.466;2023-02-11T16:41:57;6.10;99.90
3194;DHT22;1608;50.860;13.466;2023-02-11T16:44:24;6.10;99.90
3194;DHT22;1608;50.860;13.466;2023-02-11T16:46:52;6.20;99.90
3194;DHT22;1608;50.860;13.466;2023-02-11T16:49:22;6.20;99.90